createdAt,value
2019-04-12T00:00:44.747Z,1.20
2019-04-12T00:03:14.353Z,1.30
2019-04-12T00:05:43.381Z,1.20
2019-04-12T00:08:12.371Z,1.20
2019-04-12T00:10:41.302Z,1.20
2019-04-12T00:13:10.328Z,1.10
2019-04-12T00:15:40.912Z,1.10
2019-04-12T00:18:12.049Z,1.10
2019-04-12T00:20:41.814Z,1.10
2019-04-12T00:23:11.321Z,1.00
2019-04-12T00:25:40.375Z,1.00
2019-04-12T00:28:09.384Z,1.00
2019-04-12T00:30:38.347Z,0.90
2019-04-12T00:33:08.577Z,0.80
2019-04-12T00:35:37.668Z,0.80
2019-04-12T00:38:06.980Z,0.80
2019-04-12T00:40:36.100Z,0.80
2019-04-12T00:43:05.152Z,0.70
2019-04-12T00:45:35.517Z,0.60
2019-04-12T00:48:04.829Z,0.60
2019-04-12T00:50:34.644Z,0.60
2019-04-12T00:53:03.961Z,0.60
2019-04-12T00:55:32.896Z,0.60
2019-04-12T00:58:01.915Z,0.50
2019-04-12T01:00:32.864Z,0.50
2019-04-12T01:03:03.644Z,0.40
2019-04-12T01:05:33.806Z,0.40
2019-04-12T01:08:06.827Z,0.20
2019-04-12T01:10:36.540Z,0.30
2019-04-12T01:13:05.882Z,0.40
2019-04-12T01:15:34.963Z,0.30
2019-04-12T01:18:04.000Z,0.20
2019-04-12T01:20:36.282Z,0.20
2019-04-12T01:23:09.652Z,0.10
2019-04-12T01:25:37.228Z,0.00
2019-04-12T01:28:06.647Z,-0.10
2019-04-12T01:30:35.601Z,-0.10
2019-04-12T01:33:04.624Z,-0.30
2019-04-12T01:35:33.604Z,-0.30
2019-04-12T01:38:02.837Z,-0.20
2019-04-12T01:40:31.787Z,-0.10
2019-04-12T01:43:00.733Z,0.10
2019-04-12T01:45:29.704Z,0.00
2019-04-12T01:47:58.762Z,0.10
2019-04-12T01:50:27.660Z,0.00
2019-04-12T01:52:56.518Z,-0.10
2019-04-12T01:55:25.570Z,0.00
2019-04-12T01:57:54.530Z,-0.10
2019-04-12T02:00:23.614Z,0.00
2019-04-12T02:02:52.579Z,0.10
2019-04-12T02:05:21.494Z,0.10
2019-04-12T02:07:50.424Z,-0.10
2019-04-12T02:10:19.396Z,-0.10
2019-04-12T02:12:48.458Z,-0.20
2019-04-12T02:15:17.352Z,-0.30
2019-04-12T02:17:46.371Z,-0.30
2019-04-12T02:20:15.465Z,-0.30
2019-04-12T02:22:44.469Z,-0.10
2019-04-12T02:25:20.982Z,-0.30
2019-04-12T02:27:43.989Z,-0.10
2019-04-12T02:30:15.221Z,-0.30
2019-04-12T02:32:52.866Z,-0.30
2019-04-12T02:35:38.412Z,-0.30
2019-04-12T02:38:07.484Z,-0.30
2019-04-12T02:40:37.326Z,-0.30
2019-04-12T02:43:06.349Z,-0.30
2019-04-12T02:45:36.311Z,-0.20
2019-04-12T02:48:07.411Z,-0.30
2019-04-12T02:50:42.185Z,-0.30
2019-04-12T02:53:40.247Z,-0.30
2019-04-12T02:56:26.716Z,-0.30
2019-04-12T02:58:59.690Z,-0.30
2019-04-12T03:01:28.868Z,-0.40
2019-04-12T03:03:57.866Z,-0.50
2019-04-12T03:06:26.951Z,-0.40
2019-04-12T03:08:55.928Z,-0.50
2019-04-12T03:11:24.819Z,-0.40
2019-04-12T03:13:53.733Z,-0.40
2019-04-12T03:16:22.806Z,-0.30
2019-04-12T03:18:52.061Z,-0.30
2019-04-12T03:21:21.212Z,-0.40
2019-04-12T03:23:50.317Z,-0.40
2019-04-12T03:26:19.405Z,-0.40
2019-04-12T03:28:49.965Z,-0.40
2019-04-12T03:31:18.973Z,-0.50
2019-04-12T03:33:47.850Z,-0.50
2019-04-12T03:36:16.803Z,-0.50
2019-04-12T03:38:45.688Z,-0.50
2019-04-12T03:41:14.636Z,-0.40
2019-04-12T03:43:43.632Z,-0.50
2019-04-12T03:46:12.597Z,-0.50
2019-04-12T03:48:41.562Z,-0.40
2019-04-12T03:51:10.472Z,-0.40
2019-04-12T03:53:39.339Z,-0.30
2019-04-12T03:56:09.278Z,-0.50
2019-04-12T03:58:38.296Z,-0.50
2019-04-12T04:01:07.259Z,-0.50
2019-04-12T04:03:36.194Z,-0.50
2019-04-12T04:06:05.072Z,-0.30
2019-04-12T04:08:34.070Z,-0.40
2019-04-12T04:11:03.347Z,-0.40
2019-04-12T04:13:32.416Z,-0.50
2019-04-12T04:16:01.779Z,-0.40
2019-04-12T04:18:30.925Z,-0.50
2019-04-12T04:21:13.792Z,-0.60
2019-04-12T04:23:59.393Z,-0.60
2019-04-12T04:26:45.284Z,-0.40
2019-04-12T04:29:51.634Z,-0.60
2019-04-12T04:32:29.988Z,-0.60
2019-04-12T04:34:58.941Z,-0.60
2019-04-12T04:37:27.839Z,-0.60
2019-04-12T04:39:56.825Z,-0.70
2019-04-12T04:42:25.773Z,-0.60
2019-04-12T04:44:54.734Z,-0.60
2019-04-12T04:47:23.679Z,-0.60
2019-04-12T04:49:52.616Z,-0.70
2019-04-12T04:52:21.717Z,-0.70
2019-04-12T04:54:50.796Z,-0.70
2019-04-12T04:57:19.791Z,-0.60
2019-04-12T04:59:48.782Z,-0.70
2019-04-12T05:02:17.806Z,-0.70
2019-04-12T05:04:46.890Z,-0.70
2019-04-12T05:07:15.853Z,-0.60
2019-04-12T05:09:44.811Z,-0.80
2019-04-12T05:12:13.871Z,-0.70
2019-04-12T05:14:42.779Z,-0.60
2019-04-12T05:17:11.749Z,-0.60
2019-04-12T05:19:40.798Z,-0.70
2019-04-12T05:22:09.761Z,-0.70
2019-04-12T05:24:38.856Z,-0.70
2019-04-12T05:27:09.140Z,-0.50
2019-04-12T05:29:38.133Z,-0.60
2019-04-12T05:32:07.113Z,-0.60
2019-04-12T05:34:36.072Z,-0.60
2019-04-12T05:37:10.329Z,-0.40
2019-04-12T05:39:35.764Z,-0.40
2019-04-12T05:42:04.842Z,-0.40
2019-04-12T05:44:33.776Z,-0.40
2019-04-12T05:47:23.669Z,-0.50
2019-04-12T05:50:14.661Z,-0.40
2019-04-12T05:52:43.700Z,-0.40
2019-04-12T05:55:13.744Z,-0.30
2019-04-12T05:57:44.264Z,-0.20
2019-04-12T06:00:23.300Z,-0.10
2019-04-12T06:02:55.225Z,0.00
2019-04-12T06:05:23.334Z,0.00
2019-04-12T06:07:52.297Z,0.20
2019-04-12T06:10:21.199Z,0.50
2019-04-12T06:12:50.075Z,0.60
2019-04-12T06:15:19.078Z,0.60
2019-04-12T06:17:48.047Z,0.70
2019-04-12T06:20:51.240Z,0.70
2019-04-12T06:23:20.329Z,0.70
2019-04-12T06:25:55.253Z,0.70
2019-04-12T06:28:24.302Z,0.70
2019-04-12T06:30:54.741Z,0.90
2019-04-12T06:33:23.815Z,1.10
2019-04-12T06:35:53.733Z,1.20
2019-04-12T06:38:23.205Z,1.20
2019-04-12T06:40:55.215Z,1.00
2019-04-12T06:43:24.212Z,1.10
2019-04-12T06:45:53.204Z,1.20
2019-04-12T06:48:22.299Z,1.10
2019-04-12T06:50:54.100Z,1.10
2019-04-12T06:53:23.370Z,1.30
2019-04-12T06:55:57.347Z,1.30
2019-04-12T06:58:26.151Z,1.50
2019-04-12T07:01:12.351Z,1.50
2019-04-12T07:03:57.206Z,1.60
2019-04-12T07:06:22.096Z,1.60
2019-04-12T07:08:51.063Z,1.70
2019-04-12T07:11:19.946Z,1.70
2019-04-12T07:13:48.986Z,1.80
2019-04-12T07:16:17.940Z,1.80
2019-04-12T07:18:46.823Z,1.80
2019-04-12T07:21:15.782Z,2.10
2019-04-12T07:23:44.744Z,2.10
2019-04-12T07:26:14.104Z,2.40
2019-04-12T07:28:43.073Z,2.60
2019-04-12T07:31:12.061Z,2.70
2019-04-12T07:33:41.084Z,2.80
2019-04-12T07:36:10.080Z,3.00
2019-04-12T07:38:39.071Z,3.00
2019-04-12T07:41:08.524Z,3.10
2019-04-12T07:43:37.562Z,2.80
2019-04-12T07:46:06.537Z,2.70
2019-04-12T07:48:35.591Z,2.90
2019-04-12T07:51:12.769Z,3.10
2019-04-12T07:53:50.899Z,3.30
2019-04-12T07:56:20.816Z,3.30
2019-04-12T07:58:56.040Z,3.20
2019-04-12T08:01:44.903Z,3.20
2019-04-12T08:04:23.745Z,3.40
2019-04-12T08:06:58.205Z,3.70
2019-04-12T08:09:27.238Z,3.70
2019-04-12T08:11:56.221Z,3.90
2019-04-12T08:14:25.202Z,4.40
2019-04-12T08:16:54.135Z,4.40
2019-04-12T08:19:23.129Z,4.10
2019-04-12T08:21:52.075Z,4.90
2019-04-12T08:24:20.980Z,5.30
2019-04-12T08:26:50.295Z,5.50
2019-04-12T08:29:19.242Z,5.50
2019-04-12T08:31:48.250Z,5.90
2019-04-12T08:34:17.287Z,5.90
2019-04-12T08:36:46.359Z,5.60
2019-04-12T08:39:16.638Z,6.00
2019-04-12T08:41:46.854Z,5.80
2019-04-12T08:44:15.976Z,5.90
2019-04-12T08:46:44.875Z,6.10
2019-04-12T08:49:14.055Z,5.90
2019-04-12T08:51:43.031Z,6.20
2019-04-12T08:54:12.174Z,6.30
2019-04-12T08:56:41.184Z,6.40
2019-04-12T08:59:10.129Z,6.40
2019-04-12T09:01:39.146Z,6.90
2019-04-12T09:04:08.174Z,7.30
2019-04-12T09:06:37.213Z,7.00
2019-04-12T09:09:12.300Z,6.60
2019-04-12T09:11:41.243Z,6.50
2019-04-12T09:14:10.544Z,6.30
2019-04-12T09:16:39.738Z,6.20
2019-04-12T09:19:31.238Z,5.90
2019-04-12T09:22:34.364Z,5.60
2019-04-12T09:25:07.150Z,5.30
2019-04-12T09:27:36.297Z,5.40
2019-04-12T09:30:05.403Z,5.80
2019-04-12T09:32:34.450Z,5.90
2019-04-12T09:35:03.522Z,6.00
2019-04-12T09:37:32.490Z,5.80
2019-04-12T09:40:01.403Z,5.70
2019-04-12T09:42:30.345Z,5.80
2019-04-12T09:44:59.394Z,6.60
2019-04-12T09:47:28.258Z,6.40
2019-04-12T09:49:57.325Z,6.20
2019-04-12T09:52:26.440Z,6.20
2019-04-12T09:54:55.630Z,6.10
2019-04-12T09:57:24.665Z,6.30
2019-04-12T09:59:53.686Z,7.00
2019-04-12T10:02:22.665Z,6.80
2019-04-12T10:04:54.402Z,6.20
2019-04-12T10:07:22.417Z,6.10
2019-04-12T10:09:51.368Z,6.40
2019-04-12T10:12:20.295Z,7.00
2019-04-12T10:14:49.285Z,7.00
2019-04-12T10:17:19.363Z,7.30
2019-04-12T10:19:48.936Z,6.80
2019-04-12T10:22:17.914Z,6.50
2019-04-12T10:24:46.977Z,6.30
2019-04-12T10:27:17.527Z,6.30
2019-04-12T10:29:46.484Z,6.30
2019-04-12T10:32:15.672Z,6.30
2019-04-12T10:34:55.234Z,6.20
2019-04-12T10:37:15.316Z,6.30
2019-04-12T10:39:44.156Z,6.30
2019-04-12T10:42:13.271Z,6.20
2019-04-12T10:44:52.202Z,6.20
2019-04-12T10:47:37.037Z,6.00
2019-04-12T10:50:43.054Z,5.90
2019-04-12T10:53:29.644Z,6.20
2019-04-12T10:55:59.216Z,6.00
2019-04-12T10:58:28.239Z,6.20
2019-04-12T11:00:58.373Z,6.30
2019-04-12T11:03:27.320Z,6.40
2019-04-12T11:05:56.334Z,6.40
2019-04-12T11:08:25.365Z,6.40
2019-04-12T11:10:54.342Z,6.30
2019-04-12T11:13:23.410Z,6.10
2019-04-12T11:15:52.462Z,6.00
2019-04-12T11:18:21.372Z,6.10
2019-04-12T11:20:50.332Z,5.90
2019-04-12T11:23:19.324Z,6.30
2019-04-12T11:25:48.349Z,6.20
2019-04-12T11:28:17.380Z,6.40
2019-04-12T11:30:46.439Z,6.30
2019-04-12T11:33:15.437Z,6.40
2019-04-12T11:35:44.290Z,6.10
2019-04-12T11:38:13.392Z,5.90
2019-04-12T11:40:42.361Z,6.20
2019-04-12T11:43:11.652Z,6.30
2019-04-12T11:45:40.560Z,6.20
2019-04-12T11:48:09.594Z,6.30
2019-04-12T11:50:38.660Z,6.30
2019-04-12T11:53:07.680Z,6.50
2019-04-12T11:55:36.741Z,6.80
2019-04-12T11:58:05.714Z,6.40
2019-04-12T12:00:40.551Z,6.40
2019-04-12T12:03:14.552Z,6.50
2019-04-12T12:05:58.109Z,6.60
2019-04-12T12:08:58.071Z,7.20
2019-04-12T12:11:32.180Z,7.20
2019-04-12T12:14:23.209Z,6.80
2019-04-12T12:17:14.046Z,6.50
2019-04-12T12:19:43.056Z,6.10
2019-04-12T12:22:12.037Z,6.20
2019-04-12T12:24:41.164Z,6.70
2019-04-12T12:27:10.268Z,6.50
2019-04-12T12:29:42.642Z,6.60
2019-04-12T12:32:09.982Z,6.60
2019-04-12T12:34:38.962Z,6.60
2019-04-12T12:37:08.009Z,6.80
2019-04-12T12:39:36.972Z,7.00
2019-04-12T12:42:06.042Z,6.70
2019-04-12T12:44:35.019Z,6.80
2019-04-12T12:47:04.088Z,6.90
2019-04-12T12:49:33.101Z,7.00
2019-04-12T12:52:02.159Z,7.00
2019-04-12T12:54:31.144Z,6.90
2019-04-12T12:57:00.029Z,7.00
2019-04-12T12:59:28.909Z,6.90
2019-04-12T13:01:57.909Z,7.00
2019-04-12T13:04:26.998Z,7.30
2019-04-12T13:06:55.934Z,7.30
2019-04-12T13:09:24.800Z,7.20
2019-04-12T13:11:53.793Z,7.00
2019-04-12T13:14:22.889Z,6.80
2019-04-12T13:16:52.282Z,6.60
2019-04-12T13:19:21.527Z,6.60
2019-04-12T13:21:50.642Z,6.70
2019-04-12T13:24:19.621Z,6.90
2019-04-12T13:26:48.929Z,6.90
2019-04-12T13:29:17.961Z,7.20
2019-04-12T13:32:09.116Z,7.10
2019-04-12T13:34:51.820Z,6.70
2019-04-12T13:37:42.883Z,6.50
2019-04-12T13:40:22.948Z,6.20
2019-04-12T13:42:55.351Z,6.10
2019-04-12T13:45:25.412Z,6.10
2019-04-12T13:47:54.378Z,6.20
2019-04-12T13:50:23.470Z,6.30
2019-04-12T13:52:52.578Z,6.30
2019-04-12T13:55:21.493Z,6.70
2019-04-12T13:57:50.503Z,6.90
2019-04-12T14:00:21.720Z,8.30
2019-04-12T14:02:50.628Z,6.80
2019-04-12T14:05:19.670Z,6.90
2019-04-12T14:07:48.531Z,6.80
2019-04-12T14:10:17.517Z,7.00
2019-04-12T14:12:46.525Z,7.10
2019-04-12T14:15:15.586Z,6.90
2019-04-12T14:17:44.680Z,6.90
2019-04-12T14:20:13.599Z,6.60
2019-04-12T14:22:42.850Z,6.40
2019-04-12T14:25:12.052Z,6.30
2019-04-12T14:27:41.092Z,6.20
2019-04-12T14:30:11.902Z,5.80
2019-04-12T14:32:42.602Z,5.80
2019-04-12T14:35:21.221Z,5.90
2019-04-12T14:37:55.402Z,6.10
2019-04-12T14:40:24.480Z,6.20
2019-04-12T14:42:58.984Z,6.10
2019-04-12T14:45:56.118Z,6.20
2019-04-12T14:48:25.229Z,6.10
2019-04-12T14:50:54.201Z,6.20
2019-04-12T14:53:24.268Z,6.10
2019-04-12T14:55:56.619Z,5.90
2019-04-12T14:58:25.648Z,5.90
2019-04-12T15:00:55.127Z,5.80
2019-04-12T15:03:24.388Z,5.90
2019-04-12T15:05:53.525Z,5.80
2019-04-12T15:08:22.508Z,5.90
2019-04-12T15:10:51.645Z,6.00
2019-04-12T15:13:21.118Z,5.80
2019-04-12T15:15:50.197Z,5.90
2019-04-12T15:18:19.280Z,5.80
2019-04-12T15:20:48.328Z,5.80
2019-04-12T15:23:17.355Z,5.70
2019-04-12T15:25:46.271Z,5.60
2019-04-12T15:28:15.406Z,5.50
2019-04-12T15:30:44.415Z,5.50
2019-04-12T15:33:13.553Z,5.50
2019-04-12T15:35:42.723Z,5.40
2019-04-12T15:38:11.760Z,5.40
2019-04-12T15:40:42.400Z,5.40
2019-04-12T15:43:11.719Z,5.20
2019-04-12T15:45:43.384Z,5.30
2019-04-12T15:48:16.061Z,5.30
2019-04-12T15:50:45.338Z,5.40
2019-04-12T15:53:14.477Z,5.40
2019-04-12T15:55:43.545Z,5.10
2019-04-12T15:58:12.646Z,5.20
2019-04-12T16:00:51.345Z,5.20
2019-04-12T16:03:20.954Z,5.00
2019-04-12T16:05:50.005Z,4.90
2019-04-12T16:08:20.867Z,4.90
2019-04-12T16:10:59.312Z,4.70
2019-04-12T16:14:09.538Z,4.80
2019-04-12T16:17:22.689Z,4.90
2019-04-12T16:19:52.414Z,4.90
2019-04-12T16:22:21.399Z,4.90
2019-04-12T16:24:50.469Z,4.80
2019-04-12T16:27:19.605Z,4.80
2019-04-12T16:29:54.228Z,4.80
2019-04-12T16:32:45.332Z,4.70
2019-04-12T16:35:34.337Z,4.70
2019-04-12T16:38:12.215Z,4.70
2019-04-12T16:40:41.266Z,4.60
2019-04-12T16:43:10.319Z,4.50
2019-04-12T16:45:39.375Z,4.50
2019-04-12T16:48:11.679Z,4.40
2019-04-12T16:50:40.669Z,4.30
2019-04-12T16:53:09.709Z,4.50
2019-04-12T16:55:38.820Z,4.20
2019-04-12T16:58:07.769Z,4.30
2019-04-12T17:00:40.265Z,4.20
2019-04-12T17:03:09.399Z,4.30
2019-04-12T17:05:38.453Z,4.20
2019-04-12T17:08:07.321Z,4.20
2019-04-12T17:10:36.861Z,4.40
2019-04-12T17:13:05.921Z,4.50
2019-04-12T17:15:34.979Z,4.20
2019-04-12T17:18:04.082Z,4.20
2019-04-12T17:20:33.105Z,4.30
2019-04-12T17:23:02.139Z,4.30
2019-04-12T17:25:31.113Z,4.30
2019-04-12T17:28:00.101Z,4.20
2019-04-12T17:30:29.149Z,4.30
2019-04-12T17:32:58.084Z,4.20
2019-04-12T17:35:27.118Z,4.30
2019-04-12T17:37:56.137Z,4.20
2019-04-12T17:40:25.048Z,4.10
2019-04-12T17:42:55.467Z,4.10
2019-04-12T17:45:24.507Z,4.00
2019-04-12T17:47:53.479Z,4.10
2019-04-12T17:50:41.500Z,4.10
2019-04-12T17:53:28.108Z,4.00
2019-04-12T17:55:59.553Z,4.10
2019-04-12T17:58:28.583Z,4.00
2019-04-12T18:01:25.899Z,4.10
2019-04-12T18:03:56.665Z,4.10
2019-04-12T18:06:25.720Z,4.00
2019-04-12T18:08:54.750Z,4.00
2019-04-12T18:11:33.943Z,3.90
2019-04-12T18:14:03.056Z,3.80
2019-04-12T18:16:32.037Z,3.80
2019-04-12T18:19:02.084Z,3.80
2019-04-12T18:21:31.760Z,3.80
2019-04-12T18:24:00.731Z,3.70
2019-04-12T18:26:29.713Z,3.80
2019-04-12T18:28:58.782Z,3.70
2019-04-12T18:31:27.803Z,3.70
2019-04-12T18:33:56.880Z,3.70
2019-04-12T18:36:25.841Z,3.70
2019-04-12T18:38:54.972Z,3.60
2019-04-12T18:41:23.978Z,3.60
2019-04-12T18:43:52.981Z,3.60
2019-04-12T18:46:22.138Z,3.50
2019-04-12T18:48:51.402Z,3.50
2019-04-12T18:51:20.530Z,3.50
2019-04-12T18:53:49.551Z,3.50
2019-04-12T18:56:18.533Z,3.50
2019-04-12T18:58:47.612Z,3.50
2019-04-12T19:01:18.250Z,3.50
2019-04-12T19:03:47.403Z,3.50
2019-04-12T19:06:16.529Z,3.40
2019-04-12T19:08:45.635Z,3.30
2019-04-12T19:11:14.667Z,3.30
2019-04-12T19:13:43.582Z,3.10
2019-04-12T19:16:12.798Z,3.20
2019-04-12T19:18:41.767Z,3.20
2019-04-12T19:21:11.073Z,3.20
2019-04-12T19:23:40.081Z,3.20
2019-04-12T19:26:09.297Z,3.10
2019-04-12T19:28:38.344Z,3.10
2019-04-12T19:31:09.047Z,3.10
2019-04-12T19:33:56.645Z,2.90
2019-04-12T19:36:44.240Z,2.90
2019-04-12T19:39:40.453Z,2.90
2019-04-12T19:42:09.626Z,3.00
2019-04-12T19:44:38.673Z,2.90
2019-04-12T19:47:07.717Z,2.90
2019-04-12T19:49:36.725Z,2.90
2019-04-12T19:52:05.815Z,2.90
2019-04-12T19:54:35.462Z,2.90
2019-04-12T19:57:04.595Z,2.90
2019-04-12T19:59:34.425Z,2.80
2019-04-12T20:02:03.543Z,2.70
2019-04-12T20:04:32.645Z,2.70
2019-04-12T20:07:02.219Z,2.70
2019-04-12T20:09:39.662Z,2.70
2019-04-12T20:12:14.533Z,2.70
2019-04-12T20:14:43.501Z,2.60
2019-04-12T20:17:12.676Z,2.70
2019-04-12T20:19:41.747Z,2.80
2019-04-12T20:22:11.075Z,2.80
2019-04-12T20:24:40.180Z,2.80
2019-04-12T20:27:09.312Z,2.70
2019-04-12T20:29:38.250Z,2.80
2019-04-12T20:32:07.221Z,2.60
2019-04-12T20:34:36.224Z,2.60
2019-04-12T20:37:05.236Z,2.50
2019-04-12T20:39:34.147Z,2.60
2019-04-12T20:42:03.475Z,2.70
2019-04-12T20:44:32.570Z,2.70
2019-04-12T20:47:01.647Z,2.70
2019-04-12T20:49:30.638Z,2.60
2019-04-12T20:51:59.856Z,2.60
2019-04-12T20:54:28.902Z,2.60
2019-04-12T20:56:58.694Z,2.50
2019-04-12T20:59:27.691Z,2.50
2019-04-12T21:01:58.827Z,2.50
2019-04-12T21:04:28.033Z,2.50
2019-04-12T21:06:57.066Z,2.30
2019-04-12T21:09:26.805Z,2.40
2019-04-12T21:11:55.994Z,2.20
2019-04-12T21:14:24.941Z,2.30
2019-04-12T21:16:55.130Z,2.20
2019-04-12T21:19:24.268Z,2.30
2019-04-12T21:21:53.339Z,2.20
2019-04-12T21:24:22.572Z,2.20
2019-04-12T21:26:51.507Z,2.20
2019-04-12T21:29:20.644Z,2.20
2019-04-12T21:31:51.457Z,2.10
2019-04-12T21:34:20.474Z,2.10
2019-04-12T21:36:50.029Z,2.20
2019-04-12T21:39:18.952Z,2.10
2019-04-12T21:41:48.222Z,2.10
2019-04-12T21:44:17.247Z,2.10
2019-04-12T21:46:46.499Z,1.90
2019-04-12T21:49:18.566Z,1.90
2019-04-12T21:51:47.581Z,1.70
2019-04-12T21:54:16.508Z,1.70
2019-04-12T21:56:45.406Z,1.50
2019-04-12T21:59:14.907Z,1.40
2019-04-12T22:01:44.042Z,1.40
2019-04-12T22:04:16.315Z,1.40
2019-04-12T22:06:46.116Z,1.40
2019-04-12T22:09:17.524Z,1.30
2019-04-12T22:11:48.272Z,1.40
2019-04-12T22:14:23.127Z,1.40
2019-04-12T22:16:52.480Z,1.50
2019-04-12T22:19:21.487Z,1.40
2019-04-12T22:21:50.578Z,1.50
2019-04-12T22:24:21.033Z,1.50
2019-04-12T22:26:50.230Z,1.50
2019-04-12T22:29:19.223Z,1.50
2019-04-12T22:31:52.596Z,1.50
2019-04-12T22:34:22.184Z,1.50
2019-04-12T22:36:51.298Z,1.50
2019-04-12T22:39:20.806Z,1.50
2019-04-12T22:41:49.769Z,1.50
2019-04-12T22:44:18.748Z,1.50
2019-04-12T22:46:47.662Z,1.50
2019-04-12T22:49:22.620Z,1.50
2019-04-12T22:51:51.661Z,1.30
2019-04-12T22:54:20.867Z,1.50
2019-04-12T22:56:49.864Z,1.40
2019-04-12T22:59:18.829Z,1.40
2019-04-12T23:01:47.768Z,1.40
2019-04-12T23:04:17.000Z,1.40
2019-04-12T23:06:45.976Z,1.30
2019-04-12T23:09:14.991Z,1.20
2019-04-12T23:11:43.856Z,1.40
2019-04-12T23:14:12.797Z,1.40
2019-04-12T23:16:42.039Z,1.30
2019-04-12T23:19:10.921Z,1.20
2019-04-12T23:21:40.038Z,1.30
2019-04-12T23:24:09.595Z,1.30
2019-04-12T23:26:38.663Z,1.30
2019-04-12T23:29:07.780Z,1.20
2019-04-12T23:31:40.500Z,1.20
2019-04-12T23:34:46.727Z,1.10
2019-04-12T23:37:15.682Z,1.00
2019-04-12T23:39:44.735Z,0.90
2019-04-12T23:42:13.772Z,0.90
2019-04-12T23:44:43.542Z,1.00
2019-04-12T23:47:13.613Z,1.00
2019-04-12T23:49:42.775Z,1.00
2019-04-12T23:52:12.669Z,1.00
2019-04-12T23:54:47.780Z,1.00
2019-04-12T23:57:16.997Z,1.00
2019-04-12T23:59:45.965Z,0.90
